ADDS METAR Data INFO
IDs: Format: Raw Decoded Include TAF

Data at: 2325 UTC 19 Oct 2017

KLRD 192256Z 10009KT 10SM BKN065 31/19 A2997 RMK AO2 SLP151 T03060189 $
KLRD 192156Z 11008KT 10SM SCT060 32/17 A2998 RMK AO2 SLP152 T03170167 $
KLRD 192056Z 14004KT 10SM CLR 31/16 A2999 RMK AO2 SLP157 T03110161 56027 $
KLRD 191956Z 12011G14KT 10SM CLR 31/17 A3001 RMK AO2 SLP162 T03060167 $
KLRD 191856Z 15008KT 10SM CLR 29/17 A3004 RMK AO2 SLP173 T02890172 $
KLRD 191756Z 15011KT 10SM CLR 28/18 A3007 RMK AO2 SLP186 T02780178 10278 20167 58011 $
KLRD 191656Z 12007KT 10SM SCT030 26/18 A3010 RMK AO2 SLP194 T02610183 $
KLRD 191556Z VRB05KT 10SM FEW021 24/19 A3010 RMK AO2 SLP197 T02440189 $
KLRD 191456Z 00000KT 10SM CLR 22/18 A3011 RMK AO2 SLP198 T02170178 53015 $
KLRD 191356Z 07004KT 10SM CLR 18/17 A3008 RMK AO2 SLP191 T01830167 $
KLRD 191256Z 07004KT 10SM CLR 17/16 A3006 RMK AO2 SLP185 T01720161 $
KLRD 191156Z 08005KT 10SM CLR 17/16 A3006 RMK AO2 SLP183 T01720161 10189 20172 55002 $
KLRD 191056Z 11005KT 10SM CLR 18/17 A3006 RMK AO2 SLP181 T01780167 $
KLRD 190956Z AUTO 13006KT 10SM CLR 18/17 A3006 RMK AO2 SLP181 T01830167 $
KLRD 190856Z AUTO 13007KT 10SM CLR 18/17 A3007 RMK AO2 SLP184 T01830167 58007 $
KLRD 190756Z AUTO 13005KT 10SM CLR 18/16 A3008 RMK AO2 SLP188 T01830161 $
KLRD 190656Z AUTO 14005KT 10SM CLR 18/16 A3009 RMK AO2 SLP190 T01830156 $
KLRD 190556Z AUTO 11005KT 10SM CLR 18/16 A3009 RMK AO2 SLP193 T01830156 10267 20183 402890139 51005 $
KLRD 190456Z AUTO 12007KT 10SM CLR 21/15 A3009 RMK AO2 SLP192 T02060150 $
KLRD 190356Z 13010KT 10SM CLR 21/14 A3009 RMK AO2 SLP192 T02110144 $
KLRD 190256Z 12004KT 10SM CLR 21/14 A3007 RMK AO2 SLP189 T02110139 51009 $
KLRD 190156Z 10005KT 10SM CLR 23/13 A3007 RMK AO2 SLP187 T02280133 $
KLRD 190056Z 08005KT 10SM CLR 24/13 A3006 RMK AO2 SLP183 T02390128 $
KLRD 182356Z 00000KT 10SM CLR 27/12 A3005 RMK AO2 SLP179 T02670117 10289 20256 55006 $
KLRD 182256Z 16005KT 10SM CLR 28/11 A3004 RMK AO2 SLP177 T02830111 $
KLRD 182156Z 13006KT 10SM CLR 29/11 A3005 RMK AO2 SLP179 T02890111 $
KLRD 182056Z 17007KT 10SM CLR 29/11 A3006 RMK AO2 SLP184 T02890106 56029 $
KLRD 181956Z VRB04KT 10SM CLR 28/12 A3009 RMK AO2 SLP191 T02780122 $
KLRD 181856Z 11005KT 10SM CLR 27/13 A3012 RMK AO2 SLP203 T02720128 $
KLRD 181756Z VRB06KT 10SM CLR 26/13 A3015 RMK AO2 SLP214 T02610133 10261 20139 58009 $
KLRD 181656Z 15006KT 10SM CLR 24/14 A3017 RMK AO2 SLP221 T02440144 $
KLRD 181556Z 17007KT 10SM CLR 23/16 A3018 RMK AO2 SLP224 T02280161 $
KLRD 181456Z 17006KT 10SM CLR 20/17 A3018 RMK AO2 SLP224 T02000167 53015 $
KLRD 181356Z 17004KT 9SM CLR 16/14 A3016 RMK AO2 SLP219 T01610144 $
KLRD 181256Z 14003KT 9SM CLR 14/13 A3015 RMK AO2 SLP215 T01440133 $
KLRD 181156Z 13004KT 10SM CLR 14/13 A3014 RMK AO2 SLP209 T01440133 10167 20144 55002 $